createdAt,value
2019-02-24T00:01:04.354Z,143.60
2019-02-24T00:04:08.189Z,152.67
2019-02-24T00:07:12.115Z,146.47
2019-02-24T00:10:15.950Z,154.97
2019-02-24T00:13:19.897Z,159.47
2019-02-24T00:16:23.780Z,177.80
2019-02-24T00:19:27.645Z,138.60
2019-02-24T00:22:31.512Z,143.10
2019-02-24T00:25:35.372Z,134.30
2019-02-24T00:28:39.230Z,145.23
2019-02-24T00:31:43.069Z,143.83
2019-02-24T00:34:46.935Z,137.33
2019-02-24T00:37:50.765Z,134.63
2019-02-24T00:40:54.646Z,119.03
2019-02-24T00:43:58.546Z,126.73
2019-02-24T00:47:02.391Z,119.27
2019-02-24T00:50:08.762Z,120.00
2019-02-24T00:53:12.723Z,106.43
2019-02-24T00:56:16.635Z,112.70
2019-02-24T00:59:20.491Z,112.70
2019-02-24T01:02:24.403Z,108.00
2019-02-24T01:05:28.302Z,112.73
2019-02-24T01:08:32.149Z,113.23
2019-02-24T01:11:36.018Z,114.47
2019-02-24T01:14:39.872Z,109.93
2019-02-24T01:17:43.761Z,105.27
2019-02-24T01:20:47.581Z,101.10
2019-02-24T01:23:51.467Z,104.23
2019-02-24T01:26:55.352Z,92.57
2019-02-24T01:29:59.209Z,101.37
2019-02-24T01:33:03.045Z,101.27
2019-02-24T01:36:06.900Z,106.63
2019-02-24T01:39:10.761Z,92.83
2019-02-24T01:42:14.650Z,93.47
2019-02-24T01:45:18.516Z,87.93
2019-02-24T01:48:22.401Z,89.23
2019-02-24T01:51:26.223Z,91.67
2019-02-24T01:54:30.094Z,90.43
2019-02-24T01:57:33.965Z,92.73
2019-02-24T02:00:37.830Z,93.43
2019-02-24T02:03:41.688Z,97.67
2019-02-24T02:06:45.576Z,89.07
2019-02-24T02:09:49.473Z,99.57
2019-02-24T02:12:53.332Z,116.30
2019-02-24T02:15:57.209Z,112.23
2019-02-24T02:19:01.034Z,115.13
2019-02-24T02:22:04.926Z,107.33
2019-02-24T02:25:09.671Z,103.60
2019-02-24T02:28:13.536Z,103.10
2019-02-24T02:31:17.375Z,99.33
2019-02-24T02:34:21.240Z,94.07
2019-02-24T02:37:25.060Z,92.07
2019-02-24T02:40:28.961Z,90.17
2019-02-24T02:43:32.813Z,95.03
2019-02-24T02:46:36.646Z,99.33
2019-02-24T02:49:40.501Z,83.33
2019-02-24T02:52:44.328Z,101.57
2019-02-24T02:55:48.190Z,87.70
2019-02-24T02:58:54.658Z,84.87
2019-02-24T03:01:57.543Z,90.83
2019-02-24T03:05:01.386Z,89.23
2019-02-24T03:08:06.801Z,86.57
2019-02-24T03:11:10.679Z,87.27
2019-02-24T03:14:14.530Z,93.53
2019-02-24T03:17:18.402Z,89.50
2019-02-24T03:20:22.246Z,91.80
2019-02-24T03:23:26.125Z,95.70
2019-02-24T03:26:29.989Z,90.47
2019-02-24T03:29:33.863Z,87.13
2019-02-24T03:32:37.715Z,78.47
2019-02-24T03:35:41.616Z,86.63
2019-02-24T03:38:45.502Z,92.33
2019-02-24T03:41:49.334Z,97.20
2019-02-24T03:44:53.195Z,88.50
2019-02-24T03:47:57.045Z,86.57
2019-02-24T03:51:00.905Z,93.10
2019-02-24T03:54:04.750Z,94.10
2019-02-24T03:57:08.623Z,97.93
2019-02-24T04:00:12.596Z,86.50
2019-02-24T04:03:16.451Z,83.37
2019-02-24T04:06:20.355Z,88.70
2019-02-24T04:09:24.210Z,99.83
2019-02-24T04:12:28.065Z,96.07
2019-02-24T04:15:31.904Z,91.07
2019-02-24T04:18:35.767Z,90.13
2019-02-24T04:21:39.602Z,84.67
2019-02-24T04:24:43.468Z,93.93
2019-02-24T04:27:47.310Z,90.53
2019-02-24T04:30:51.166Z,98.10
2019-02-24T04:33:55.077Z,110.63
2019-02-24T04:36:58.920Z,100.43
2019-02-24T04:40:02.812Z,94.63
2019-02-24T04:43:06.633Z,114.00
2019-02-24T04:46:10.518Z,102.33
2019-02-24T04:49:14.365Z,115.90
2019-02-24T04:52:18.251Z,117.67
2019-02-24T04:55:22.099Z,112.90
2019-02-24T04:58:25.936Z,97.87
2019-02-24T05:01:29.821Z,110.87
2019-02-24T05:04:33.671Z,109.07
2019-02-24T05:07:37.543Z,116.50
2019-02-24T05:10:41.391Z,107.30
2019-02-24T05:13:45.246Z,111.27
2019-02-24T05:16:49.063Z,111.00
2019-02-24T05:19:52.941Z,112.50
2019-02-24T05:22:56.822Z,115.03
2019-02-24T05:26:00.638Z,102.37
2019-02-24T05:29:04.510Z,100.20
2019-02-24T05:32:08.351Z,94.93
2019-02-24T05:35:12.198Z,93.23
2019-02-24T05:38:16.430Z,81.17
2019-02-24T05:41:20.297Z,81.77
2019-02-24T05:44:24.141Z,84.27
2019-02-24T05:47:28.005Z,79.50
2019-02-24T05:50:31.905Z,85.13
2019-02-24T05:53:35.747Z,78.27
2019-02-24T05:56:39.596Z,78.37
2019-02-24T05:59:43.430Z,85.83
2019-02-24T06:02:47.291Z,71.17
2019-02-24T06:05:51.143Z,78.00
2019-02-24T06:08:55.008Z,76.77
2019-02-24T06:11:58.833Z,66.23
2019-02-24T06:15:02.711Z,66.97
2019-02-24T06:18:06.603Z,77.07
2019-02-24T06:21:10.453Z,76.30
2019-02-24T06:24:14.300Z,80.67
2019-02-24T06:27:18.158Z,68.17
2019-02-24T06:30:22.003Z,66.50
2019-02-24T06:33:25.849Z,75.40
2019-02-24T06:36:29.701Z,71.80
2019-02-24T06:39:33.542Z,78.30
2019-02-24T06:42:37.404Z,71.80
2019-02-24T06:45:41.284Z,67.63
2019-02-24T06:48:45.135Z,64.83
2019-02-24T06:51:49.008Z,70.83
2019-02-24T06:54:52.834Z,68.40
2019-02-24T06:57:56.702Z,59.77
2019-02-24T07:01:00.558Z,67.83
2019-02-24T07:04:04.419Z,65.43
2019-02-24T07:07:08.335Z,60.63
2019-02-24T07:10:12.182Z,63.03
2019-02-24T07:13:16.057Z,57.47
2019-02-24T07:16:19.915Z,60.23
2019-02-24T07:19:23.829Z,58.83
2019-02-24T07:22:27.656Z,55.83
2019-02-24T07:25:31.529Z,62.13
2019-02-24T07:28:35.399Z,58.60
2019-02-24T07:31:39.258Z,57.67
2019-02-24T07:34:43.210Z,51.10
2019-02-24T07:37:47.063Z,43.33
2019-02-24T07:40:50.957Z,48.00
2019-02-24T07:43:54.782Z,52.60
2019-02-24T07:46:58.692Z,50.00
2019-02-24T07:50:02.554Z,41.50
2019-02-24T07:53:06.427Z,50.07
2019-02-24T07:56:10.265Z,52.57
2019-02-24T07:59:14.169Z,50.27
2019-02-24T08:02:18.079Z,48.80
2019-02-24T08:05:21.924Z,49.83
2019-02-24T08:08:25.771Z,54.80
2019-02-24T08:11:29.616Z,50.33
2019-02-24T08:14:33.466Z,54.90
2019-02-24T08:17:37.293Z,51.97
2019-02-24T08:20:41.190Z,63.27
2019-02-24T08:23:45.020Z,51.57
2019-02-24T08:26:48.891Z,52.03
2019-02-24T08:29:52.819Z,50.03
2019-02-24T08:32:56.649Z,52.30
2019-02-24T08:36:00.510Z,51.03
2019-02-24T08:39:04.924Z,45.43
2019-02-24T08:42:08.817Z,43.07
2019-02-24T08:45:12.630Z,41.67
2019-02-24T08:48:16.476Z,47.83
2019-02-24T08:51:20.312Z,47.83
2019-02-24T08:54:24.190Z,53.60
2019-02-24T08:57:28.136Z,51.47
2019-02-24T09:00:32.064Z,50.23
2019-02-24T09:03:35.945Z,50.27
2019-02-24T09:06:39.764Z,46.03
2019-02-24T09:09:43.629Z,48.47
2019-02-24T09:12:47.456Z,51.73
2019-02-24T09:15:53.215Z,57.50
2019-02-24T09:18:56.834Z,50.33
2019-02-24T09:22:00.665Z,50.27
2019-02-24T09:25:04.733Z,49.77
2019-02-24T09:28:08.571Z,56.00
2019-02-24T09:31:12.448Z,53.07
2019-02-24T09:34:16.294Z,49.60
2019-02-24T09:37:20.165Z,57.87
2019-02-24T09:40:23.996Z,64.67
2019-02-24T09:43:27.850Z,67.67
2019-02-24T09:46:31.770Z,68.40
2019-02-24T09:49:35.583Z,60.17
2019-02-24T09:52:39.471Z,63.37
2019-02-24T09:55:43.309Z,66.75
2019-02-24T09:58:47.150Z,61.67
2019-02-24T10:01:50.976Z,63.83
2019-02-24T10:04:54.820Z,56.37
2019-02-24T10:07:58.645Z,65.10
2019-02-24T10:11:02.501Z,59.67
2019-02-24T10:14:06.354Z,65.40
2019-02-24T10:17:10.226Z,71.63
2019-02-24T10:20:14.310Z,67.10
2019-02-24T10:23:18.165Z,72.97
2019-02-24T10:26:22.025Z,77.73
2019-02-24T10:29:25.865Z,74.50
2019-02-24T10:32:29.750Z,75.57
2019-02-24T10:35:33.581Z,81.83
2019-02-24T10:38:37.454Z,77.60
2019-02-24T10:41:41.390Z,83.13
2019-02-24T10:44:45.240Z,75.57
2019-02-24T10:47:49.162Z,57.50
2019-02-24T10:50:53.007Z,79.10
2019-02-24T10:53:56.902Z,71.37
2019-02-24T10:57:00.719Z,74.33
2019-02-24T11:00:07.552Z,68.67
2019-02-24T11:03:11.568Z,74.40
2019-02-24T11:06:15.386Z,77.00
2019-02-24T11:09:19.337Z,84.23
2019-02-24T11:12:23.191Z,79.67
2019-02-24T11:15:27.018Z,79.60
2019-02-24T11:18:30.877Z,82.80
2019-02-24T11:21:34.780Z,77.57
2019-02-24T11:24:38.606Z,82.00
2019-02-24T11:27:42.449Z,76.87
2019-02-24T11:30:46.297Z,78.20
2019-02-24T11:33:50.831Z,83.53
2019-02-24T11:36:54.707Z,70.40
2019-02-24T11:39:58.555Z,69.50
2019-02-24T11:43:02.432Z,67.20
2019-02-24T11:46:06.265Z,65.50
2019-02-24T11:49:10.128Z,63.97
2019-02-24T11:52:13.990Z,60.43
2019-02-24T11:55:17.888Z,61.13
2019-02-24T11:58:21.721Z,57.60
2019-02-24T12:01:25.564Z,57.73
2019-02-24T12:04:29.915Z,51.83
2019-02-24T12:07:33.786Z,49.03
2019-02-24T12:10:37.667Z,49.53
2019-02-24T12:13:41.503Z,49.50
2019-02-24T12:16:45.362Z,49.53
2019-02-24T12:19:50.151Z,47.73
2019-02-24T12:22:54.027Z,43.43
2019-02-24T12:25:57.859Z,38.83
2019-02-24T12:29:01.737Z,48.20
2019-02-24T12:32:06.170Z,39.17
2019-02-24T12:35:10.166Z,40.67
2019-02-24T12:38:14.041Z,46.77
2019-02-24T12:41:17.873Z,39.57
2019-02-24T12:44:21.725Z,38.13
2019-02-24T12:47:25.691Z,46.17
2019-02-24T12:50:29.740Z,39.47
2019-02-24T12:53:33.617Z,39.50
2019-02-24T12:56:38.931Z,36.47
2019-02-24T12:59:43.697Z,39.43
2019-02-24T13:02:47.583Z,45.87
2019-02-24T13:05:51.454Z,39.23
2019-02-24T13:08:55.315Z,41.77
2019-02-24T13:11:59.168Z,40.07
2019-02-24T13:15:03.474Z,40.80
2019-02-24T13:18:07.622Z,45.57
2019-02-24T13:21:12.415Z,37.87
2019-02-24T13:24:16.274Z,41.33
2019-02-24T13:27:20.124Z,42.70
2019-02-24T13:30:23.964Z,50.17
2019-02-24T13:33:27.907Z,48.80
2019-02-24T13:36:31.733Z,56.27
2019-02-24T13:39:35.600Z,57.67
2019-02-24T13:42:39.412Z,56.30
2019-02-24T13:45:43.271Z,60.80
2019-02-24T13:48:47.153Z,53.87
2019-02-24T13:51:51.052Z,56.90
2019-02-24T13:54:54.897Z,51.97
2019-02-24T13:57:58.734Z,48.57
2019-02-24T14:01:02.592Z,52.70
2019-02-24T14:04:06.545Z,52.00
2019-02-24T14:07:10.419Z,49.33
2019-02-24T14:10:14.990Z,53.03
2019-02-24T14:13:18.850Z,52.50
2019-02-24T14:16:22.662Z,57.63
2019-02-24T14:19:26.532Z,54.67
2019-02-24T14:22:30.457Z,60.43
2019-02-24T14:25:34.258Z,63.87
2019-02-24T14:28:38.148Z,61.77
2019-02-24T14:31:42.001Z,66.33
2019-02-24T14:34:45.854Z,59.00
2019-02-24T14:37:49.707Z,67.87
2019-02-24T14:40:53.568Z,66.83
2019-02-24T14:43:57.374Z,71.47
2019-02-24T14:47:01.212Z,61.27
2019-02-24T14:50:06.008Z,69.90
2019-02-24T14:53:09.847Z,66.60
2019-02-24T14:56:13.711Z,74.17
2019-02-24T14:59:17.546Z,191.50
2019-02-24T15:02:21.503Z,73.07
2019-02-24T15:05:25.357Z,82.33
2019-02-24T15:08:29.236Z,70.33
2019-02-24T15:11:33.068Z,65.47
2019-02-24T15:14:37.037Z,67.23
2019-02-24T15:17:40.902Z,63.50
2019-02-24T15:20:44.870Z,63.00
2019-02-24T15:23:48.786Z,53.63
2019-02-24T15:26:52.631Z,51.10
2019-02-24T15:29:56.524Z,58.17
2019-02-24T15:33:00.362Z,63.50
2019-02-24T15:36:04.292Z,58.00
2019-02-24T15:39:08.202Z,61.23
2019-02-24T15:42:12.137Z,55.87
2019-02-24T15:45:16.347Z,66.40
2019-02-24T15:48:20.199Z,53.20
2019-02-24T15:51:24.073Z,54.73
2019-02-24T15:54:27.917Z,58.60
2019-02-24T15:57:32.197Z,50.20
2019-02-24T16:00:36.113Z,58.50
2019-02-24T16:03:39.988Z,63.30
2019-02-24T16:06:43.827Z,57.93
2019-02-24T16:09:47.821Z,57.80
2019-02-24T16:12:51.732Z,63.23
2019-02-24T16:15:55.580Z,67.60
2019-02-24T16:18:59.483Z,60.23
2019-02-24T16:22:03.315Z,62.43
2019-02-24T16:25:08.576Z,62.23
2019-02-24T16:28:12.442Z,68.57
2019-02-24T16:31:16.282Z,64.37
2019-02-24T16:34:20.137Z,63.13
2019-02-24T16:37:24.004Z,71.57
2019-02-24T16:40:30.826Z,73.67
2019-02-24T16:43:34.712Z,80.70
2019-02-24T16:46:38.600Z,72.50
2019-02-24T16:49:42.519Z,73.07
2019-02-24T16:52:46.414Z,74.73
2019-02-24T16:55:50.261Z,72.97
2019-02-24T16:58:54.173Z,76.00
2019-02-24T17:01:58.025Z,84.43
2019-02-24T17:05:01.986Z,77.87
2019-02-24T17:08:05.803Z,80.27
2019-02-24T17:11:09.692Z,80.73
2019-02-24T17:14:13.622Z,86.60
2019-02-24T17:17:17.494Z,76.90
2019-02-24T17:20:23.732Z,86.70
2019-02-24T17:23:27.623Z,81.67
2019-02-24T17:26:31.606Z,68.23
2019-02-24T17:29:35.517Z,66.83
2019-02-24T17:32:39.503Z,70.30
2019-02-24T17:35:43.409Z,68.63
2019-02-24T17:38:47.332Z,69.30
2019-02-24T17:41:51.201Z,76.83
2019-02-24T17:44:55.054Z,76.50
2019-02-24T17:47:59.006Z,84.87
2019-02-24T17:51:02.857Z,72.87
2019-02-24T17:54:06.763Z,81.97
2019-02-24T17:57:10.715Z,92.33
2019-02-24T18:00:24.977Z,82.77
2019-02-24T18:03:29.055Z,85.33
2019-02-24T18:06:32.938Z,79.10
2019-02-24T18:09:36.826Z,91.80
2019-02-24T18:12:40.740Z,107.47
2019-02-24T18:15:44.696Z,95.40
2019-02-24T18:18:48.607Z,102.63
2019-02-24T18:21:52.551Z,100.93
2019-02-24T18:25:02.916Z,97.97
2019-02-24T18:28:02.187Z,105.13
2019-02-24T18:31:07.709Z,108.40
2019-02-24T18:34:11.643Z,97.67
2019-02-24T18:37:15.621Z,88.33
2019-02-24T18:40:19.647Z,80.70
2019-02-24T18:43:23.548Z,83.97
2019-02-24T18:46:27.458Z,89.80
2019-02-24T18:49:31.432Z,76.90
2019-02-24T18:52:35.338Z,82.03
2019-02-24T18:55:39.296Z,91.67
2019-02-24T18:58:43.240Z,86.03
2019-02-24T19:01:47.292Z,87.40
2019-02-24T19:04:51.266Z,93.70
2019-02-24T19:07:55.278Z,90.00
2019-02-24T19:10:59.469Z,96.80
2019-02-24T19:14:03.495Z,88.70
2019-02-24T19:17:07.646Z,93.53
2019-02-24T19:20:16.646Z,100.37
2019-02-24T19:23:20.697Z,97.03
2019-02-24T19:26:24.644Z,115.97
2019-02-24T19:29:28.595Z,94.80
2019-02-24T19:32:32.607Z,98.97
2019-02-24T19:35:36.519Z,108.40
2019-02-24T19:38:40.480Z,103.77
2019-02-24T19:41:44.389Z,87.73
2019-02-24T19:44:48.332Z,90.40
2019-02-24T19:47:52.356Z,92.40
2019-02-24T19:50:56.315Z,97.10
2019-02-24T19:54:00.218Z,86.87
2019-02-24T19:57:04.302Z,88.10
2019-02-24T20:00:13.959Z,93.20
2019-02-24T20:03:17.889Z,89.80
2019-02-24T20:06:21.810Z,93.50
2019-02-24T20:09:25.765Z,92.63
2019-02-24T20:12:29.726Z,93.07
2019-02-24T20:15:35.726Z,79.90
2019-02-24T20:18:39.518Z,86.73
2019-02-24T20:21:43.487Z,80.50
2019-02-24T20:24:47.436Z,79.43
2019-02-24T20:27:51.372Z,84.77
2019-02-24T20:30:55.401Z,76.43
2019-02-24T20:33:59.339Z,84.63
2019-02-24T20:37:03.252Z,86.20
2019-02-24T20:40:09.538Z,88.20
2019-02-24T20:43:13.582Z,78.33
2019-02-24T20:46:17.576Z,80.37
2019-02-24T20:49:21.544Z,69.93
2019-02-24T20:52:25.469Z,68.40
2019-02-24T20:55:29.407Z,77.50
2019-02-24T20:58:33.378Z,85.17
2019-02-24T21:01:37.273Z,73.97
2019-02-24T21:04:41.103Z,64.53
2019-02-24T21:07:45.067Z,72.73
2019-02-24T21:10:48.967Z,60.57
2019-02-24T21:13:52.966Z,59.20
2019-02-24T21:16:56.911Z,60.47
2019-02-24T21:20:00.764Z,51.03
2019-02-24T21:23:04.997Z,49.03
2019-02-24T21:26:08.917Z,60.53
2019-02-24T21:29:12.882Z,50.57
2019-02-24T21:32:16.724Z,57.50
2019-02-24T21:35:20.582Z,55.50
2019-02-24T21:38:24.428Z,55.40
2019-02-24T21:41:29.818Z,55.17
2019-02-24T21:44:33.792Z,52.80
2019-02-24T21:47:37.706Z,54.60
2019-02-24T21:50:42.040Z,54.30
2019-02-24T21:53:45.889Z,50.60
2019-02-24T21:56:49.734Z,52.27
2019-02-24T21:59:53.602Z,53.80
2019-02-24T22:02:57.527Z,55.90
2019-02-24T22:06:01.358Z,53.80
2019-02-24T22:09:07.793Z,60.90
2019-02-24T22:12:11.657Z,56.77
2019-02-24T22:15:21.006Z,54.37
2019-02-24T22:18:24.832Z,54.43
2019-02-24T22:21:28.733Z,54.80
2019-02-24T22:24:32.556Z,51.93
2019-02-24T22:27:36.462Z,55.37
2019-02-24T22:30:41.692Z,55.37
2019-02-24T22:33:45.535Z,58.47
2019-02-24T22:36:49.392Z,53.53
2019-02-24T22:39:53.272Z,60.30
2019-02-24T22:42:57.105Z,58.97
2019-02-24T22:46:00.985Z,58.73
2019-02-24T22:49:04.900Z,60.37
2019-02-24T22:52:08.726Z,57.57
2019-02-24T22:55:14.502Z,53.80
2019-02-24T22:58:18.355Z,54.87
2019-02-24T23:01:24.149Z,51.93
2019-02-24T23:04:27.984Z,57.00
2019-02-24T23:07:31.862Z,57.00
2019-02-24T23:10:35.702Z,58.57
2019-02-24T23:13:39.618Z,52.53
2019-02-24T23:16:43.446Z,59.43
2019-02-24T23:19:47.326Z,57.27
2019-02-24T23:22:51.158Z,58.73
2019-02-24T23:25:55.080Z,59.47
2019-02-24T23:28:58.921Z,57.70
2019-02-24T23:32:02.787Z,59.93
2019-02-24T23:35:07.213Z,54.50
2019-02-24T23:38:11.018Z,55.57
2019-02-24T23:41:14.868Z,54.97
2019-02-24T23:44:18.727Z,57.63
2019-02-24T23:47:22.607Z,55.50
2019-02-24T23:50:26.436Z,62.20
2019-02-24T23:53:30.316Z,54.70
2019-02-24T23:56:34.181Z,54.50
2019-02-24T23:59:38.077Z,58.20
